Time;durP1;ratioP1;P1;durP2;ratioP2;P2;SDS_P1;SDS_P2;PMS_P1;PMS_P2;Temp;Humidity;BMP_temperature;BMP_pressure;BME280_temperature;BME280_humidity;BME280_pressure;Samples;Min_cycle;Max_cycle;Signal;HPM_P1;HPM_P2
2021/12/02 00:01:17;;;;;;;4.88;2.88;;;;;;;16.32;100.00;101516.28;5029704;28;20111;-72
2021/12/02 00:03:47;;;;;;;4.45;3.00;;;;;;;16.30;100.00;101523.22;5030935;28;20414;-72
2021/12/02 00:06:18;;;;;;;5.45;2.95;;;;;;;16.29;100.00;101521.47;5030945;28;20549;-72
2021/12/02 00:08:47;;;;;;;4.28;2.83;;;;;;;16.27;100.00;101517.94;5031947;28;20049;-72
2021/12/02 00:11:17;;;;;;;4.40;2.85;;;;;;;16.24;100.00;101516.16;5031954;28;20474;-72
2021/12/02 00:13:53;;;;;;;4.38;2.97;;;;;;;16.21;100.00;101515.22;5030763;28;20131;-72
2021/12/02 00:16:28;;;;;;;5.40;2.83;;;;;;;16.18;100.00;101510.81;5031154;28;20077;-72
2021/12/02 00:21:45;;;;;;;4.35;2.88;;;;;;;16.03;100.00;101511.38;5033147;28;20057;-71
2021/12/02 00:24:19;;;;;;;5.40;2.90;;;;;;;15.87;100.00;101506.72;5032633;28;20049;-73
2021/12/02 00:26:49;;;;;;;5.40;3.25;;;;;;;15.75;100.00;101506.50;5032979;28;20072;-73
2021/12/02 00:29:22;;;;;;;5.03;3.38;;;;;;;15.73;100.00;101508.19;5032952;28;20155;-72
2021/12/02 00:31:53;;;;;;;4.80;3.08;;;;;;;15.70;100.00;101503.75;5031249;28;20045;-73
2021/12/02 00:34:22;;;;;;;4.22;2.63;;;;;;;15.66;100.00;101502.78;5031089;28;20081;-72
2021/12/02 00:36:51;;;;;;;6.63;3.88;;;;;;;15.62;100.00;101506.22;5030407;28;20045;-72
2021/12/02 00:39:21;;;;;;;4.13;2.72;;;;;;;15.54;100.00;101499.06;5030865;28;20458;-73
2021/12/02 00:41:49;;;;;;;4.32;2.85;;;;;;;15.42;100.00;101497.09;5030500;28;20087;-73
2021/12/02 00:44:20;;;;;;;5.68;4.03;;;;;;;15.26;100.00;101494.13;5030385;28;20061;-73
2021/12/02 00:46:50;;;;;;;5.28;3.33;;;;;;;15.12;100.00;101495.56;5029648;28;20119;-71
2021/12/02 00:49:20;;;;;;;7.07;4.60;;;;;;;15.02;100.00;101493.56;5030408;28;20057;-71
2021/12/02 00:51:56;;;;;;;5.53;4.03;;;;;;;14.93;100.00;101488.16;5030391;28;20568;-72
2021/12/02 00:54:26;;;;;;;5.35;3.25;;;;;;;14.98;100.00;101497.84;5030442;28;20519;-72
2021/12/02 00:56:56;;;;;;;9.55;3.35;;;;;;;14.99;100.00;101490.91;5030182;28;20436;-72
2021/12/02 00:59:31;;;;;;;4.90;3.08;;;;;;;15.00;100.00;101484.84;5030513;28;20461;-74
2021/12/02 01:02:00;;;;;;;5.18;3.20;;;;;;;15.00;100.00;101485.75;5030144;28;20069;-76
2021/12/02 01:04:28;;;;;;;5.60;3.60;;;;;;;14.99;100.00;101485.69;5030312;28;20061;-76
2021/12/02 01:06:57;;;;;;;8.60;3.47;;;;;;;14.99;100.00;101488.31;5032323;28;20054;-76
2021/12/02 01:09:25;;;;;;;5.80;3.58;;;;;;;14.97;100.00;101487.38;5034407;28;20046;-76
2021/12/02 01:11:56;;;;;;;5.43;3.47;;;;;;;14.96;100.00;101490.84;5034031;28;20388;-76
2021/12/02 01:14:26;;;;;;;6.15;3.53;;;;;;;14.94;100.00;101492.53;5034095;28;20154;-75
2021/12/02 01:16:55;;;;;;;9.45;4.05;;;;;;;14.87;100.00;101487.16;5034136;28;20057;-76
2021/12/02 01:19:24;;;;;;;5.60;3.70;;;;;;;14.83;100.00;101490.53;5034430;28;20495;-78
2021/12/02 01:21:56;;;;;;;5.10;3.70;;;;;;;14.83;100.00;101495.75;5034314;28;20053;-76
2021/12/02 01:24:26;;;;;;;7.28;3.80;;;;;;;14.83;100.00;101487.94;5035954;28;20513;-77
2021/12/02 01:26:56;;;;;;;8.02;3.58;;;;;;;14.85;100.00;101488.84;5033947;28;20138;-77
2021/12/02 01:29:26;;;;;;;6.63;3.17;;;;;;;14.83;100.00;101487.94;5034174;28;20050;-76
2021/12/02 01:32:01;;;;;;;4.28;3.03;;;;;;;14.78;100.00;101496.50;5033671;28;20046;-76
2021/12/02 01:34:30;;;;;;;3.65;2.60;;;;;;;14.69;100.00;101491.94;5033737;28;20046;-77
2021/12/02 01:36:58;;;;;;;6.63;3.55;;;;;;;14.61;100.00;101488.25;5033707;28;20631;-77
2021/12/02 01:39:28;;;;;;;4.55;3.65;;;;;;;14.55;100.00;101486.41;5033850;28;20505;-78
2021/12/02 01:41:58;;;;;;;5.30;3.50;;;;;;;14.48;100.00;101483.53;5033500;28;20136;-77
2021/12/02 01:44:30;;;;;;;4.88;3.15;;;;;;;14.40;100.00;101494.66;5033580;28;20081;-77
2021/12/02 01:47:00;;;;;;;8.47;3.10;;;;;;;14.35;100.00;101492.78;5033457;28;20107;-77
2021/12/02 01:49:33;;;;;;;5.47;3.47;;;;;;;14.36;100.00;101494.53;5033825;28;20487;-77
2021/12/02 01:52:02;;;;;;;4.90;3.88;;;;;;;14.32;100.00;101488.38;5035147;28;20046;-75
2021/12/02 01:54:31;;;;;;;5.03;2.80;;;;;;;14.31;100.00;101493.53;5033180;28;20061;-75
2021/12/02 01:57:06;;;;;;;6.20;2.50;;;;;;;14.25;100.00;101491.69;5032610;28;20525;-75
2021/12/02 01:59:38;;;;;;;10.48;3.10;;;;;;;14.16;100.00;101494.91;5033645;28;20087;-76
2021/12/02 02:02:07;;;;;;;5.28;2.65;;;;;;;14.07;100.00;101494.66;5035005;28;20075;-75
2021/12/02 02:04:36;;;;;;;5.60;2.80;;;;;;;13.97;100.00;101500.44;5034776;28;20049;-74
2021/12/02 02:07:12;;;;;;;5.18;2.70;;;;;;;13.88;100.00;101493.28;5034898;28;20103;-75
2021/12/02 02:09:41;;;;;;;6.35;2.22;;;;;;;13.79;100.00;101496.50;5034551;28;20056;-75
2021/12/02 02:12:11;;;;;;;4.45;2.55;;;;;;;13.75;100.00;101501.59;5032948;28;20132;-75
2021/12/02 02:14:43;;;;;;;3.28;2.05;;;;;;;13.70;100.00;101503.16;5032970;28;20049;-76
2021/12/02 02:17:19;;;;;;;6.43;2.87;;;;;;;13.71;100.00;101500.59;5032372;28;20133;-75
2021/12/02 02:19:47;;;;;;;6.72;2.45;;;;;;;13.75;100.00;101505.06;5035942;28;20297;-76
2021/12/02 02:22:21;;;;;;;4.72;2.55;;;;;;;13.79;100.00;101500.84;5032450;28;20049;-75
2021/12/02 02:24:49;;;;;;;4.88;2.88;;;;;;;13.81;100.00;101509.53;5032743;28;20466;-75
2021/12/02 02:27:19;;;;;;;4.13;2.50;;;;;;;13.84;100.00;101512.25;5032431;28;20041;-77
2021/12/02 02:29:48;;;;;;;3.42;2.47;;;;;;;13.87;100.00;101506.25;5032825;28;20487;-75
2021/12/02 02:32:17;;;;;;;3.47;2.45;;;;;;;13.85;100.00;101510.50;5032367;28;20408;-74
2021/12/02 02:34:45;;;;;;;4.82;2.60;;;;;;;13.76;100.00;101518.94;5032748;28;20096;-74
2021/12/02 02:37:14;;;;;;;3.70;2.45;;;;;;;13.69;100.00;101520.47;5030284;28;20058;-74
2021/12/02 02:39:44;;;;;;;5.60;3.63;;;;;;;13.67;100.00;101524.75;5032617;28;20049;-74
2021/12/02 02:42:13;;;;;;;5.28;3.13;;;;;;;13.65;100.00;101508.22;5031971;28;20294;-75
2021/12/02 02:44:41;;;;;;;4.50;2.90;;;;;;;13.61;100.00;101506.38;5032357;28;20392;-75
2021/12/02 02:47:10;;;;;;;4.47;2.13;;;;;;;13.60;100.00;101508.09;5032019;28;20475;-75
2021/12/02 02:49:38;;;;;;;3.83;2.40;;;;;;;13.61;100.00;101509.88;5032377;28;20049;-76
2021/12/02 02:52:09;;;;;;;5.55;2.72;;;;;;;13.62;100.00;101506.41;5032015;28;20049;-75
2021/12/02 02:54:38;;;;;;;6.15;4.03;;;;;;;13.66;100.00;101502.19;5032229;28;20057;-75
2021/12/02 02:57:11;;;;;;;6.30;3.30;;;;;;;13.69;100.00;101504.88;5032073;28;20120;-76
2021/12/02 02:59:57;;;;;;;7.32;3.53;;;;;;;13.69;100.00;101507.47;5032286;28;20088;-75
2021/12/02 03:02:30;;;;;;;9.52;4.18;;;;;;;13.67;100.00;101508.25;5031461;28;21046;-75
2021/12/02 03:05:07;;;;;;;8.02;4.00;;;;;;;13.66;100.00;101507.41;5032220;28;20056;-76
2021/12/02 03:07:41;;;;;;;6.90;3.75;;;;;;;13.67;100.00;101503.06;5031587;28;20503;-75
2021/12/02 03:10:18;;;;;;;8.25;4.43;;;;;;;13.67;100.00;101505.66;5032152;28;20060;-74
2021/12/02 03:12:58;;;;;;;7.07;4.13;;;;;;;13.69;100.00;101517.00;5031441;28;20045;-75
2021/12/02 03:18:13;;;;;;;6.57;3.38;;;;;;;13.66;100.00;101516.91;5032150;28;20111;-74
2021/12/02 03:20:41;;;;;;;6.30;3.95;;;;;;;13.65;100.00;101530.75;5031787;28;20110;-74
2021/12/02 03:23:10;;;;;;;6.57;3.72;;;;;;;13.65;100.00;101533.34;5031178;28;20049;-77
2021/12/02 03:25:39;;;;;;;9.02;3.72;;;;;;;13.63;100.00;101538.53;5031782;28;20645;-77
2021/12/02 03:28:09;;;;;;;6.28;3.95;;;;;;;13.64;100.00;101539.41;5031686;28;20049;-78
2021/12/02 03:30:37;;;;;;;6.90;3.85;;;;;;;13.62;100.00;101541.94;5031734;28;20053;-80
2021/12/02 03:33:06;;;;;;;7.80;3.95;;;;;;;13.58;100.00;101535.78;5031397;28;20045;-77
2021/12/02 03:35:35;;;;;;;8.40;3.85;;;;;;;13.51;100.00;101540.75;5032259;28;20065;-75
2021/12/02 03:38:03;;;;;;;6.85;3.30;;;;;;;13.42;100.00;101543.94;5031270;28;20075;-74
2021/12/02 03:40:32;;;;;;;4.40;3.08;;;;;;;13.28;100.00;101550.44;5031571;28;20087;-74
2021/12/02 03:43:00;;;;;;;4.90;2.95;;;;;;;13.19;100.00;101543.19;5031276;28;20064;-75
2021/12/02 03:45:32;;;;;;;5.35;3.00;;;;;;;13.16;100.00;101541.38;5032638;28;20053;-74
2021/12/02 03:48:01;;;;;;;4.38;2.92;;;;;;;13.14;100.00;101542.16;5032968;28;20041;-75
2021/12/02 03:50:30;;;;;;;5.68;2.97;;;;;;;13.09;100.00;101555.03;5033230;28;20136;-74
2021/12/02 03:52:58;;;;;;;5.72;3.63;;;;;;;13.06;100.00;101554.94;5031792;28;20139;-74
2021/12/02 03:55:27;;;;;;;8.43;4.10;;;;;;;13.07;100.00;101554.09;5031766;28;20099;-74
2021/12/02 03:57:56;;;;;;;4.88;3.47;;;;;;;13.05;100.00;101558.34;5031913;28;20049;-73
2021/12/02 04:00:24;;;;;;;6.38;3.83;;;;;;;13.00;100.00;101550.41;5032081;28;20084;-74
2021/12/02 04:02:54;;;;;;;4.85;3.65;;;;;;;13.04;100.00;101556.59;5031475;28;20046;-73
2021/12/02 04:05:23;;;;;;;8.35;4.32;;;;;;;13.07;100.00;101561.00;5031820;28;20046;-74
2021/12/02 04:07:51;;;;;;;9.57;4.38;;;;;;;13.10;100.00;101561.09;5031635;28;20134;-74
2021/12/02 04:10:21;;;;;;;8.65;3.92;;;;;;;13.11;100.00;101561.16;5031717;28;20042;-74
2021/12/02 04:12:55;;;;;;;7.60;3.75;;;;;;;13.15;100.00;101563.03;5031092;28;20063;-74
2021/12/02 04:15:27;;;;;;;11.57;4.05;;;;;;;13.15;100.00;101560.41;5031685;28;20049;-75
2021/12/02 04:17:57;;;;;;;8.52;4.95;;;;;;;13.17;100.00;101569.16;5034607;28;20045;-75
2021/12/02 04:20:26;;;;;;;6.47;4.22;;;;;;;13.19;100.00;101566.56;5031879;28;20487;-75
2021/12/02 04:22:56;;;;;;;7.13;4.07;;;;;;;13.18;100.00;101563.09;5031037;28;20095;-74
2021/12/02 04:25:25;;;;;;;6.68;3.80;;;;;;;13.10;100.00;101558.50;5030451;28;20045;-73
2021/12/02 04:27:54;;;;;;;4.25;2.67;;;;;;;12.99;100.00;101551.25;5030893;28;20131;-73
2021/12/02 04:30:25;;;;;;;5.60;2.90;;;;;;;12.93;100.00;101552.75;5031580;28;20042;-74
2021/12/02 04:32:54;;;;;;;5.13;3.35;;;;;;;12.91;100.00;101567.41;5030998;28;20049;-74
2021/12/02 04:35:25;;;;;;;5.72;3.67;;;;;;;12.91;100.00;101559.63;5031057;28;20067;-74
2021/12/02 04:37:53;;;;;;;6.70;3.75;;;;;;;12.91;100.00;101539.72;5031188;28;20049;-72
2021/12/02 04:40:24;;;;;;;4.80;3.40;;;;;;;12.81;100.00;101536.78;5031468;28;20104;-73
2021/12/02 04:42:53;;;;;;;4.68;2.92;;;;;;;12.82;100.00;101548.94;5034873;28;20053;-74
2021/12/02 04:45:22;;;;;;;4.32;2.90;;;;;;;12.80;100.00;101551.47;5035177;28;20061;-74
2021/12/02 04:47:50;;;;;;;4.53;2.88;;;;;;;12.88;100.00;101549.13;5034863;28;20080;-74
2021/12/02 04:50:19;;;;;;;6.22;3.22;;;;;;;12.86;100.00;101536.09;5035182;28;20155;-74
2021/12/02 04:52:49;;;;;;;7.68;3.83;;;;;;;12.98;100.00;101546.00;5034716;28;20503;-73
2021/12/02 04:55:18;;;;;;;5.00;3.42;;;;;;;13.02;100.00;101547.00;5035111;28;20140;-74
2021/12/02 04:57:46;;;;;;;10.30;3.50;;;;;;;13.05;100.00;101542.75;5034955;28;20060;-73
2021/12/02 05:00:16;;;;;;;7.43;3.72;;;;;;;13.08;100.00;101548.06;5035041;28;20163;-74
2021/12/02 05:02:45;;;;;;;6.50;3.55;;;;;;;13.09;100.00;101547.22;5034634;28;20045;-74
2021/12/02 05:05:14;;;;;;;7.47;3.45;;;;;;;13.10;100.00;101546.41;5034984;28;20049;-73
2021/12/02 05:07:43;;;;;;;5.03;3.05;;;;;;;13.12;100.00;101552.50;5034695;28;20053;-72
2021/12/02 05:10:13;;;;;;;6.93;3.78;;;;;;;13.09;100.00;101552.41;5034698;28;20042;-72
2021/12/02 05:12:41;;;;;;;7.55;4.53;;;;;;;13.05;100.00;101558.34;5034717;28;20548;-72
2021/12/02 05:15:11;;;;;;;4.90;3.38;;;;;;;13.03;100.00;101565.19;5037503;28;20145;-72
2021/12/02 05:17:39;;;;;;;10.05;4.13;;;;;;;13.04;100.00;101572.19;5035059;28;20498;-73
2021/12/02 05:20:09;;;;;;;7.38;4.80;;;;;;;13.04;100.00;101572.19;5036397;28;20045;-73
2021/12/02 05:22:37;;;;;;;6.32;3.85;;;;;;;13.04;100.00;101572.19;5015230;28;20488;-73
2021/12/02 05:25:07;;;;;;;8.27;3.50;;;;;;;13.02;100.00;101572.97;5015521;28;20053;-73
2021/12/02 05:27:38;;;;;;;7.20;4.03;;;;;;;12.90;100.00;101573.47;5014327;28;20050;-72
2021/12/02 05:30:07;;;;;;;6.68;4.50;;;;;;;12.84;100.00;101565.44;5015186;28;20045;-73
2021/12/02 05:32:36;;;;;;;8.45;3.97;;;;;;;12.78;100.00;101564.41;5014301;28;20089;-72
2021/12/02 05:35:06;;;;;;;7.53;4.32;;;;;;;12.75;100.00;101568.63;5014832;28;20046;-73
2021/12/02 05:37:34;;;;;;;7.35;4.25;;;;;;;12.74;100.00;101583.31;5012007;28;20500;-72
2021/12/02 05:40:03;;;;;;;6.88;3.35;;;;;;;12.71;100.00;101570.25;5014543;28;20251;-72
2021/12/02 05:42:31;;;;;;;5.70;3.60;;;;;;;12.65;100.00;101575.22;5014267;28;20046;-74
2021/12/02 05:45:01;;;;;;;11.05;4.15;;;;;;;12.63;100.00;101582.06;5029563;28;20449;-76
2021/12/02 05:47:30;;;;;;;9.90;3.13;;;;;;;12.67;100.00;101589.16;5033923;28;20057;-75
2021/12/02 05:49:58;;;;;;;6.93;3.40;;;;;;;12.70;100.00;101590.97;5033986;28;20045;-74
2021/12/02 05:52:27;;;;;;;9.57;3.72;;;;;;;12.63;100.00;101594.19;5033516;28;20041;-75
2021/12/02 05:54:55;;;;;;;6.05;3.75;;;;;;;12.67;100.00;101606.44;5034048;28;20492;-75
2021/12/02 05:57:24;;;;;;;6.25;3.67;;;;;;;12.61;100.00;101586.31;5033462;28;20499;-73
2021/12/02 05:59:52;;;;;;;4.22;2.75;;;;;;;12.39;100.00;101579.50;5033787;28;20412;-74
2021/12/02 06:02:22;;;;;;;6.05;3.00;;;;;;;12.47;100.00;101603.16;5033623;28;20622;-76
2021/12/02 06:04:52;;;;;;;5.43;3.10;;;;;;;12.45;100.00;101607.41;5033653;28;20511;-75
2021/12/02 06:07:21;;;;;;;5.80;3.17;;;;;;;12.45;100.00;101604.78;5033508;28;20199;-74
2021/12/02 06:09:52;;;;;;;3.63;2.85;;;;;;;12.46;100.00;101609.16;5034860;28;20050;-75
2021/12/02 06:12:21;;;;;;;7.28;3.83;;;;;;;12.45;100.00;101616.06;5014352;28;20053;-74
2021/12/02 06:14:49;;;;;;;5.40;3.42;;;;;;;12.36;100.00;101605.34;5013557;28;20053;-74
2021/12/02 06:17:18;;;;;;;4.68;3.28;;;;;;;12.36;100.00;101613.13;5012905;28;20124;-75
2021/12/02 06:19:48;;;;;;;7.55;3.80;;;;;;;12.31;100.00;101615.56;5013315;28;20081;-75
2021/12/02 06:22:17;;;;;;;6.57;4.00;;;;;;;12.32;100.00;101625.13;5030389;28;20138;-75
2021/12/02 06:24:47;;;;;;;7.53;4.13;;;;;;;12.31;100.00;101617.28;5032797;28;20045;-75
2021/12/02 06:27:16;;;;;;;5.68;3.75;;;;;;;12.29;100.00;101612.03;5032855;28;20057;-75
2021/12/02 06:29:45;;;;;;;5.30;3.38;;;;;;;12.31;100.00;101605.19;5032855;28;20107;-75
2021/12/02 06:32:13;;;;;;;7.22;3.40;;;;;;;12.34;100.00;101610.47;5032534;28;20049;-76
2021/12/02 06:34:41;;;;;;;3.97;2.67;;;;;;;12.36;100.00;101606.22;5032471;28;20049;-75
2021/12/02 06:37:11;;;;;;;4.85;2.97;;;;;;;12.39;100.00;101615.81;5032795;28;20057;-76
2021/12/02 06:39:40;;;;;;;5.15;2.97;;;;;;;12.40;100.00;101617.63;5032549;28;20087;-75
2021/12/02 06:42:08;;;;;;;5.32;3.50;;;;;;;12.42;100.00;101628.94;5032260;28;20091;-74
2021/12/02 06:44:37;;;;;;;8.88;3.22;;;;;;;12.42;100.00;101630.66;5032243;28;20453;-76
2021/12/02 06:47:05;;;;;;;6.15;3.08;;;;;;;12.42;100.00;101646.22;5032333;28;20061;-76
2021/12/02 06:49:35;;;;;;;6.60;3.78;;;;;;;12.41;100.00;101657.41;5032394;28;20475;-74
2021/12/02 06:52:04;;;;;;;10.80;3.90;;;;;;;12.39;100.00;101659.06;5032178;28;20050;-73
2021/12/02 06:54:34;;;;;;;11.32;4.03;;;;;;;12.40;100.00;101660.84;5032038;28;20128;-73
2021/12/02 06:57:03;;;;;;;11.02;4.45;;;;;;;12.38;100.00;101665.09;5032109;28;20530;-74
2021/12/02 06:59:31;;;;;;;14.82;3.63;;;;;;;12.33;100.00;101668.41;5032275;28;20041;-73
2021/12/02 07:02:00;;;;;;;6.70;3.30;;;;;;;12.30;100.00;101672.59;5032070;28;20062;-73
2021/12/02 07:04:29;;;;;;;9.10;3.80;;;;;;;12.27;100.00;101680.28;5031431;28;20052;-73
2021/12/02 07:06:58;;;;;;;5.95;3.80;;;;;;;12.26;100.00;101674.19;5036009;28;20045;-74
2021/12/02 07:09:26;;;;;;;6.70;3.60;;;;;;;12.26;100.00;101682.00;5034305;28;20499;-73
2021/12/02 07:11:56;;;;;;;7.10;3.65;;;;;;;12.24;100.00;101682.75;5032467;28;20131;-74
2021/12/02 07:14:26;;;;;;;6.53;3.25;;;;;;;12.24;100.00;101693.13;5031972;28;20049;-74
2021/12/02 07:16:56;;;;;;;6.60;3.28;;;;;;;12.25;100.00;101697.50;5032457;28;20060;-74
2021/12/02 07:19:25;;;;;;;13.45;4.65;;;;;;;12.26;100.00;101700.16;5033778;28;20144;-73
2021/12/02 07:21:54;;;;;;;8.88;3.92;;;;;;;12.29;100.00;101712.34;5033267;28;20368;-74
2021/12/02 07:24:23;;;;;;;6.57;4.28;;;;;;;12.28;100.00;101706.28;5033513;28;20049;-73
2021/12/02 07:26:52;;;;;;;7.22;4.43;;;;;;;12.29;100.00;101715.81;5032940;28;20510;-73
2021/12/02 07:29:22;;;;;;;9.73;4.15;;;;;;;12.28;100.00;101718.38;5032187;28;20107;-73
2021/12/02 07:31:52;;;;;;;11.05;4.68;;;;;;;12.28;100.00;101715.78;5031818;28;20526;-73
2021/12/02 07:34:24;;;;;;;10.35;4.65;;;;;;;12.27;100.00;101714.88;5030838;28;20107;-73
2021/12/02 07:36:55;;;;;;;9.55;4.68;;;;;;;12.24;100.00;101714.78;5030797;28;20060;-73
2021/12/02 07:39:24;;;;;;;8.55;4.50;;;;;;;12.23;100.00;101718.22;5031659;28;20561;-73
2021/12/02 07:41:53;;;;;;;6.90;4.22;;;;;;;12.22;100.00;101728.53;5031395;28;20046;-73
2021/12/02 07:44:23;;;;;;;6.85;4.32;;;;;;;12.20;100.00;101731.03;5031083;28;20045;-73
2021/12/02 07:47:05;;;;;;;6.65;3.40;;;;;;;12.15;100.00;101724.81;5031615;28;20226;-72
2021/12/02 07:49:34;;;;;;;8.32;3.30;;;;;;;12.11;100.00;101725.50;5031239;28;20053;-73
2021/12/02 07:52:03;;;;;;;6.28;3.63;;;;;;;12.12;100.00;101722.09;5031319;28;20127;-73
2021/12/02 07:54:33;;;;;;;7.40;3.22;;;;;;;12.13;100.00;101726.44;5031187;28;20049;-74
2021/12/02 07:57:02;;;;;;;11.80;3.80;;;;;;;12.09;100.00;101728.03;5031356;28;20133;-73
2021/12/02 07:59:32;;;;;;;8.13;3.55;;;;;;;12.04;100.00;101726.97;5030986;28;20053;-73
2021/12/02 08:02:02;;;;;;;6.88;3.58;;;;;;;12.03;100.00;101726.94;5031330;28;20095;-72
2021/12/02 08:04:30;;;;;;;5.38;3.53;;;;;;;12.01;100.00;101720.81;5033738;28;20515;-73
2021/12/02 08:06:58;;;;;;;7.43;4.15;;;;;;;11.96;100.00;101718.03;5031064;28;20607;-73
2021/12/02 08:09:27;;;;;;;6.85;3.60;;;;;;;11.93;100.00;101717.88;5031332;28;20061;-72
2021/12/02 08:11:58;;;;;;;4.97;3.33;;;;;;;11.90;100.00;101725.56;5031112;28;20103;-73
2021/12/02 08:14:27;;;;;;;4.47;2.80;;;;;;;11.88;100.00;101715.09;5030857;28;20042;-73
2021/12/02 08:16:57;;;;;;;7.03;3.03;;;;;;;11.81;100.00;101700.09;5033627;28;20103;-73
2021/12/02 08:19:25;;;;;;;5.80;3.28;;;;;;;11.86;100.00;101711.53;5035309;28;20123;-73
2021/12/02 08:21:54;;;;;;;6.80;3.83;;;;;;;11.87;100.00;101721.13;5035065;28;20042;-73
2021/12/02 08:24:25;;;;;;;5.03;2.92;;;;;;;11.89;100.00;101716.03;5035150;28;20049;-74
2021/12/02 08:26:54;;;;;;;6.60;3.47;;;;;;;11.85;100.00;101714.97;5035132;28;20414;-73
2021/12/02 08:29:23;;;;;;;4.05;3.08;;;;;;;11.83;100.00;101718.31;5034989;28;20122;-74
2021/12/02 08:31:52;;;;;;;9.38;3.42;;;;;;;11.80;100.00;101716.50;5035131;28;20484;-73
2021/12/02 08:34:22;;;;;;;6.70;2.90;;;;;;;11.78;100.00;101714.66;5034607;28;20045;-74
2021/12/02 08:36:53;;;;;;;8.57;3.50;;;;;;;11.79;100.00;101725.09;5035219;28;20446;-73
2021/12/02 08:39:25;;;;;;;6.40;3.50;;;;;;;11.77;100.00;101718.06;5034845;28;20124;-74
2021/12/02 08:41:55;;;;;;;5.40;2.88;;;;;;;11.74;100.00;101717.13;5034762;28;20049;-73
2021/12/02 08:44:25;;;;;;;7.22;3.30;;;;;;;11.78;100.00;101723.31;5034436;28;20042;-74
2021/12/02 08:46:54;;;;;;;5.75;3.08;;;;;;;11.81;100.00;101725.16;5034815;28;20084;-73
2021/12/02 08:49:25;;;;;;;7.30;3.22;;;;;;;11.84;100.00;101723.59;5034610;28;20046;-73
2021/12/02 08:51:54;;;;;;;9.80;3.72;;;;;;;11.86;100.00;101731.41;5032864;28;20099;-74
2021/12/02 08:54:22;;;;;;;9.20;3.25;;;;;;;11.79;100.00;101730.28;5034460;28;20046;-73
2021/12/02 08:56:51;;;;;;;5.53;3.47;;;;;;;11.78;100.00;101732.81;5034792;28;20049;-74
2021/12/02 08:59:20;;;;;;;4.63;3.00;;;;;;;11.77;100.00;101734.50;5036339;28;20056;-73
2021/12/02 09:01:49;;;;;;;10.98;3.60;;;;;;;11.81;100.00;101735.53;5035589;28;20454;-74
2021/12/02 09:04:17;;;;;;;7.88;3.88;;;;;;;11.81;100.00;101731.22;5036559;28;20053;-74
2021/12/02 09:06:47;;;;;;;4.80;3.33;;;;;;;11.81;100.00;101741.59;5034768;28;20557;-73
2021/12/02 09:09:16;;;;;;;9.40;3.20;;;;;;;11.76;100.00;101745.72;5034791;28;20128;-73
2021/12/02 09:11:44;;;;;;;10.45;3.80;;;;;;;11.69;100.00;101738.50;5036024;28;20057;-73
2021/12/02 09:14:13;;;;;;;5.47;3.25;;;;;;;11.69;100.00;101733.31;5035839;28;20057;-73
2021/12/02 09:16:41;;;;;;;7.53;3.63;;;;;;;11.68;100.00;101726.34;5036053;28;20455;-73
2021/12/02 09:19:09;;;;;;;8.30;3.58;;;;;;;11.73;100.00;101730.03;5035343;28;20045;-74
2021/12/02 09:21:38;;;;;;;10.52;4.30;;;;;;;11.78;100.00;101728.50;5034441;28;20112;-74
2021/12/02 09:24:09;;;;;;;6.82;3.63;;;;;;;11.81;100.00;101725.16;5034311;28;20049;-74
2021/12/02 09:26:37;;;;;;;7.38;3.75;;;;;;;11.85;100.00;101740.91;5033493;28;20115;-73
2021/12/02 09:29:06;;;;;;;5.53;3.35;;;;;;;11.87;100.00;101736.69;5033922;28;20053;-74
2021/12/02 09:31:35;;;;;;;9.18;3.40;;;;;;;11.87;100.00;101728.91;5033172;28;20053;-73
2021/12/02 09:34:03;;;;;;;8.63;4.25;;;;;;;11.90;100.00;101733.34;5033400;28;20475;-74
2021/12/02 09:36:32;;;;;;;8.55;4.25;;;;;;;11.92;100.00;101729.09;5033409;28;20049;-74
2021/12/02 09:39:01;;;;;;;9.90;4.32;;;;;;;11.93;100.00;101731.75;5033855;28;20466;-73
2021/12/02 09:41:31;;;;;;;7.55;4.18;;;;;;;11.94;100.00;101733.50;5033842;28;20041;-73
2021/12/02 09:43:59;;;;;;;11.07;4.22;;;;;;;11.95;100.00;101736.97;5033159;28;20042;-74
2021/12/02 09:46:28;;;;;;;6.90;4.03;;;;;;;11.94;100.00;101728.31;5033611;28;20107;-73
2021/12/02 09:49:00;;;;;;;8.15;4.47;;;;;;;11.97;100.00;101739.66;5033553;28;20053;-74
2021/12/02 09:51:32;;;;;;;5.70;4.28;;;;;;;11.94;100.00;101730.91;5033564;28;20045;-73
2021/12/02 09:54:07;;;;;;;8.50;4.03;;;;;;;11.94;100.00;101735.22;5033407;28;20128;-73
2021/12/02 09:56:39;;;;;;;7.88;4.72;;;;;;;11.94;100.00;101737.81;5033407;28;20049;-73
2021/12/02 09:59:10;;;;;;;6.40;3.63;;;;;;;11.94;100.00;101735.22;5036243;28;20085;-73
2021/12/02 10:01:44;;;;;;;9.63;3.58;;;;;;;11.95;100.00;101727.50;5026209;28;20244;-73
2021/12/02 10:04:13;;;;;;;10.40;4.05;;;;;;;11.91;100.00;101729.91;5032574;28;20052;-73
2021/12/02 10:06:42;;;;;;;6.57;3.78;;;;;;;11.86;100.00;101736.59;5033204;28;20131;-73
2021/12/02 10:09:13;;;;;;;7.55;3.90;;;;;;;11.80;100.00;101737.25;5033279;28;20034;-73
2021/12/02 10:11:49;;;;;;;8.05;4.25;;;;;;;11.79;100.00;101740.66;5033422;28;20140;-73
2021/12/02 10:14:22;;;;;;;8.57;4.47;;;;;;;11.81;100.00;101739.00;5033057;28;20045;-74
2021/12/02 10:16:53;;;;;;;8.43;3.95;;;;;;;11.83;100.00;101737.34;5033245;28;20053;-73
2021/12/02 10:19:22;;;;;;;7.50;4.22;;;;;;;11.86;100.00;101741.78;5032857;28;20136;-74
2021/12/02 10:21:56;;;;;;;8.88;3.85;;;;;;;11.89;100.00;101762.69;5032819;28;20049;-73
2021/12/02 10:24:27;;;;;;;7.72;4.40;;;;;;;11.88;100.00;101751.41;5032735;28;20099;-73
2021/12/02 10:26:58;;;;;;;9.43;3.88;;;;;;;11.91;100.00;101750.66;5032854;28;20492;-73
2021/12/02 10:29:30;;;;;;;7.10;4.40;;;;;;;11.91;100.00;101748.97;5032718;28;20135;-73
2021/12/02 10:32:12;;;;;;;10.63;4.53;;;;;;;11.88;100.00;101740.16;5032643;28;20057;-73
2021/12/02 10:34:52;;;;;;;6.13;3.70;;;;;;;11.84;100.00;101743.41;5032509;28;20053;-73
2021/12/02 10:37:22;;;;;;;5.90;3.55;;;;;;;11.82;100.00;101742.47;5032322;28;20057;-73
2021/12/02 10:39:59;;;;;;;6.75;3.70;;;;;;;11.71;100.00;101726.50;5031809;28;20057;-73
2021/12/02 10:42:31;;;;;;;8.07;3.80;;;;;;;11.76;100.00;101735.34;5032353;28;20487;-73
2021/12/02 10:45:02;;;;;;;9.88;4.50;;;;;;;11.70;100.00;101740.28;5032522;28;20085;-73
2021/12/02 10:47:31;;;;;;;9.50;4.05;;;;;;;11.72;100.00;101738.63;5029181;28;20046;-73
2021/12/02 10:50:01;;;;;;;8.35;4.18;;;;;;;11.75;100.00;101743.97;5028930;28;20511;-73
2021/12/02 10:52:31;;;;;;;6.32;3.95;;;;;;;11.79;100.00;101748.41;5032489;28;20450;-73
2021/12/02 10:55:03;;;;;;;7.50;4.10;;;;;;;11.86;100.00;101758.22;5033596;28;20494;-73
2021/12/02 10:57:35;;;;;;;10.23;4.55;;;;;;;11.80;100.00;101739.84;5037430;28;20525;-73
2021/12/02 11:00:09;;;;;;;6.60;3.83;;;;;;;11.86;100.00;101741.78;5032520;28;20079;-73
2021/12/02 11:02:40;;;;;;;7.72;4.38;;;;;;;11.84;100.00;101736.56;5032202;28;20095;-73
2021/12/02 11:05:11;;;;;;;6.63;3.55;;;;;;;11.83;100.00;101734.75;5031816;28;20045;-73
2021/12/02 11:07:41;;;;;;;7.15;4.07;;;;;;;11.86;100.00;101739.19;5032558;28;20077;-73
2021/12/02 11:10:13;;;;;;;8.77;4.22;;;;;;;11.89;100.00;101736.75;5033977;28;20095;-73
2021/12/02 11:12:44;;;;;;;8.20;4.00;;;;;;;11.89;100.00;101742.84;5033883;28;20076;-73
2021/12/02 11:15:15;;;;;;;8.30;3.93;;;;;;;11.93;100.00;101751.59;5033907;28;20045;-73
2021/12/02 11:17:49;;;;;;;7.20;4.40;;;;;;;11.96;100.00;101754.34;5033178;28;20122;-73
2021/12/02 11:20:21;;;;;;;6.80;4.15;;;;;;;11.99;100.00;101753.56;5032435;28;20475;-73
2021/12/02 11:22:53;;;;;;;7.55;4.13;;;;;;;12.02;100.00;101758.88;5031530;28;20049;-73
2021/12/02 11:25:22;;;;;;;6.90;3.58;;;;;;;12.01;100.00;101742.44;5031605;28;20049;-73
2021/12/02 11:28:06;;;;;;;8.15;3.83;;;;;;;12.00;100.00;101742.34;5032086;28;20077;-73
2021/12/02 11:30:36;;;;;;;6.15;3.70;;;;;;;11.95;100.00;101737.88;5031578;28;20159;-73
2021/12/02 11:33:07;;;;;;;7.45;3.88;;;;;;;11.94;100.00;101746.47;5031169;28;20050;-73
2021/12/02 11:35:39;;;;;;;6.82;3.58;;;;;;;11.97;100.00;101744.84;5031500;28;20107;-73